createdAt,value
2023-10-16T00:00:04.962Z,911
2023-10-16T00:01:08.598Z,912
2023-10-16T00:02:21.212Z,913
2023-10-16T00:03:34.594Z,914
2023-10-16T00:04:37.477Z,916
2023-10-16T00:05:51.058Z,915
2023-10-16T00:07:03.662Z,913
2023-10-16T00:08:07.144Z,914
2023-10-16T00:09:19.940Z,914
2023-10-16T00:10:33.544Z,913
2023-10-16T00:11:36.248Z,915
2023-10-16T00:12:49.631Z,915
2023-10-16T00:14:02.319Z,916
2023-10-16T00:15:16.067Z,917
2023-10-16T00:16:18.839Z,918
2023-10-16T00:17:32.713Z,918
2023-10-16T00:18:35.594Z,917
2023-10-16T00:19:49.062Z,916
2023-10-16T00:21:01.704Z,916
2023-10-16T00:22:15.072Z,916
2023-10-16T00:23:19.478Z,914
2023-10-16T00:24:33.232Z,914
2023-10-16T00:25:46.031Z,912
2023-10-16T00:26:49.551Z,910
2023-10-16T00:28:02.157Z,911
2023-10-16T00:29:15.550Z,910
2023-10-16T00:30:18.262Z,911
2023-10-16T00:31:32.151Z,913
2023-10-16T00:32:44.872Z,914
2023-10-16T00:33:48.581Z,916
2023-10-16T00:35:01.346Z,919
2023-10-16T00:36:15.072Z,919
2023-10-16T00:37:17.784Z,919
2023-10-16T00:38:31.069Z,920
2023-10-16T00:39:43.790Z,922
2023-10-16T00:40:57.082Z,924
2023-10-16T00:41:59.860Z,923
2023-10-16T00:43:13.060Z,920
2023-10-16T00:44:26.983Z,922
2023-10-16T00:45:32.062Z,921
2023-10-16T00:46:44.839Z,920
2023-10-16T00:47:58.604Z,924
2023-10-16T00:49:01.420Z,922
2023-10-16T00:50:15.073Z,923
2023-10-16T00:51:39.484Z,924
2023-10-16T00:52:34.589Z,924
2023-10-16T00:53:47.179Z,924
2023-10-16T00:54:50.605Z,925
2023-10-16T00:56:03.328Z,923
2023-10-16T00:57:16.580Z,923
2023-10-16T00:58:19.323Z,923
2023-10-16T00:59:32.562Z,926
2023-10-16T01:00:45.247Z,927
2023-10-16T01:01:58.549Z,927
2023-10-16T01:03:01.316Z,926
2023-10-16T01:04:14.646Z,924
2023-10-16T01:05:27.460Z,926
2023-10-16T01:06:31.622Z,927
2023-10-16T01:07:44.365Z,929
2023-10-16T01:08:57.557Z,925
2023-10-16T01:10:00.265Z,927
2023-10-16T01:11:13.589Z,930
2023-10-16T01:12:26.292Z,930
2023-10-16T01:13:40.104Z,929
2023-10-16T01:14:42.813Z,929
2023-10-16T01:15:56.635Z,928
2023-10-16T01:17:09.415Z,928
2023-10-16T01:18:13.068Z,927
2023-10-16T01:19:25.709Z,925
2023-10-16T01:20:39.103Z,926
2023-10-16T01:21:41.831Z,926
2023-10-16T01:22:55.592Z,926
2023-10-16T01:24:08.273Z,926
2023-10-16T01:25:11.571Z,929
2023-10-16T01:26:24.221Z,929
2023-10-16T01:27:37.610Z,929
2023-10-16T01:28:50.306Z,931
2023-10-16T01:29:54.066Z,930
2023-10-16T01:31:06.729Z,929
2023-10-16T01:32:20.080Z,926
2023-10-16T01:33:22.818Z,925
2023-10-16T01:34:37.496Z,928
2023-10-16T01:35:50.482Z,929
2023-10-16T01:36:54.139Z,929
2023-10-16T01:38:06.887Z,928
2023-10-16T01:39:20.601Z,927
2023-10-16T01:40:23.375Z,926
2023-10-16T01:41:36.586Z,926
2023-10-16T01:42:49.285Z,926
2023-10-16T01:43:53.069Z,927
2023-10-16T01:45:05.766Z,927
2023-10-16T01:46:20.624Z,929
2023-10-16T01:47:23.647Z,926
2023-10-16T01:48:37.143Z,923
2023-10-16T01:49:49.883Z,923
2023-10-16T01:50:55.101Z,923
2023-10-16T01:52:07.741Z,923
2023-10-16T01:53:21.073Z,924
2023-10-16T01:54:24.112Z,924
2023-10-16T01:55:37.580Z,925
2023-10-16T01:56:50.217Z,924
2023-10-16T01:57:53.639Z,924
2023-10-16T01:59:06.434Z,925
2023-10-16T02:00:20.111Z,926
2023-10-16T02:01:22.989Z,926
2023-10-16T02:02:37.160Z,927
2023-10-16T02:03:51.516Z,928
2023-10-16T02:04:55.094Z,929
2023-10-16T02:06:07.734Z,932
2023-10-16T02:07:21.095Z,932
2023-10-16T02:08:23.782Z,932
2023-10-16T02:09:37.153Z,931
2023-10-16T02:10:49.922Z,926
2023-10-16T02:12:03.605Z,923
2023-10-16T02:13:06.312Z,920
2023-10-16T02:14:19.597Z,920
2023-10-16T02:15:32.260Z,918
2023-10-16T02:16:36.188Z,915
2023-10-16T02:17:48.939Z,916
2023-10-16T02:19:02.592Z,916
2023-10-16T02:20:05.321Z,916
2023-10-16T02:21:18.655Z,917
2023-10-16T02:22:31.361Z,917
2023-10-16T02:23:35.116Z,916
2023-10-16T02:24:47.776Z,916
2023-10-16T02:26:01.100Z,916
2023-10-16T02:27:14.278Z,917
2023-10-16T02:28:18.120Z,916
2023-10-16T02:29:30.747Z,915
2023-10-16T02:30:44.129Z,915
2023-10-16T02:31:47.071Z,915
2023-10-16T02:33:00.634Z,914
2023-10-16T02:34:13.420Z,914
2023-10-16T02:35:17.111Z,915
2023-10-16T02:36:29.828Z,912
2023-10-16T02:37:43.123Z,911
2023-10-16T02:38:45.827Z,910
2023-10-16T02:39:59.111Z,911
2023-10-16T02:41:11.753Z,909
2023-10-16T02:42:25.133Z,908
2023-10-16T02:43:27.897Z,907
2023-10-16T02:44:41.121Z,908
2023-10-16T02:45:53.817Z,906
2023-10-16T02:46:57.638Z,905
2023-10-16T02:48:10.456Z,905
2023-10-16T02:49:24.085Z,904
2023-10-16T02:50:26.833Z,903
2023-10-16T02:51:40.148Z,907
2023-10-16T02:52:52.865Z,902
2023-10-16T02:54:06.084Z,900
2023-10-16T02:55:08.772Z,898
2023-10-16T02:56:22.086Z,896
2023-10-16T02:57:34.801Z,897
2023-10-16T02:58:38.139Z,896
2023-10-16T02:59:50.745Z,895
2023-10-16T03:01:04.130Z,895
2023-10-16T03:02:16.914Z,896
2023-10-16T03:03:22.152Z,894
2023-10-16T03:04:34.910Z,896
2023-10-16T03:05:48.616Z,895
2023-10-16T03:06:51.354Z,894
2023-10-16T03:08:05.128Z,894
2023-10-16T03:09:17.809Z,895
2023-10-16T03:10:21.653Z,898
2023-10-16T03:11:34.340Z,898
2023-10-16T03:12:48.127Z,897
2023-10-16T03:13:52.097Z,896
2023-10-16T03:15:06.609Z,894
2023-10-16T03:16:09.316Z,894
2023-10-16T03:17:22.609Z,893
2023-10-16T03:18:35.499Z,892
2023-10-16T03:19:49.133Z,891
2023-10-16T03:20:51.817Z,889
2023-10-16T03:22:05.126Z,889
2023-10-16T03:23:17.771Z,889
2023-10-16T03:24:21.147Z,891
2023-10-16T03:25:33.921Z,892
2023-10-16T03:26:47.666Z,891
2023-10-16T03:27:51.993Z,890
2023-10-16T03:29:05.659Z,888
2023-10-16T03:30:18.479Z,887
2023-10-16T03:31:22.278Z,885
2023-10-16T03:32:35.286Z,882
2023-10-16T03:34:08.649Z,883
2023-10-16T03:34:51.599Z,882
2023-10-16T03:36:04.225Z,883
2023-10-16T03:37:17.637Z,885
2023-10-16T03:38:30.274Z,883
2023-10-16T03:39:35.303Z,882
2023-10-16T03:40:50.099Z,883
2023-10-16T03:41:53.627Z,881
2023-10-16T03:43:06.409Z,878
2023-10-16T03:44:20.122Z,881
2023-10-16T03:45:22.863Z,881
2023-10-16T03:46:36.621Z,881
2023-10-16T03:47:50.495Z,881
2023-10-16T03:48:54.163Z,877
2023-10-16T03:50:06.785Z,880
2023-10-16T03:51:20.142Z,881
2023-10-16T03:52:22.871Z,877
2023-10-16T03:53:36.117Z,878
2023-10-16T03:54:48.889Z,876
2023-10-16T03:55:52.615Z,876
2023-10-16T03:57:05.283Z,878
2023-10-16T03:58:18.638Z,877
2023-10-16T03:59:31.278Z,879
2023-10-16T04:00:34.664Z,878
2023-10-16T04:01:47.388Z,879
2023-10-16T04:03:01.424Z,877
2023-10-16T04:04:04.582Z,878
2023-10-16T04:05:18.147Z,877
2023-10-16T04:06:30.853Z,877
2023-10-16T04:07:34.643Z,876
2023-10-16T04:08:47.302Z,876
2023-10-16T04:10:03.491Z,876
2023-10-16T04:11:07.854Z,874
2023-10-16T04:12:21.709Z,874
2023-10-16T04:13:24.714Z,872
2023-10-16T04:14:38.151Z,871
2023-10-16T04:15:50.871Z,872
2023-10-16T04:16:54.693Z,876
2023-10-16T04:18:07.598Z,872
2023-10-16T04:19:21.164Z,873
2023-10-16T04:20:23.870Z,873
2023-10-16T04:21:37.159Z,873
2023-10-16T04:22:49.821Z,875
2023-10-16T04:23:53.158Z,884
2023-10-16T04:25:05.841Z,895
2023-10-16T04:26:19.105Z,914
2023-10-16T04:27:31.751Z,961
2023-10-16T04:28:35.120Z,968
2023-10-16T04:29:47.769Z,976
2023-10-16T04:31:01.223Z,982
2023-10-16T04:32:04.061Z,992
2023-10-16T04:33:17.640Z,998
2023-10-16T04:34:30.267Z,1008
2023-10-16T04:35:33.741Z,1012
2023-10-16T04:36:46.291Z,1019
2023-10-16T04:37:59.669Z,1031
2023-10-16T04:39:12.066Z,1040
2023-10-16T04:40:15.677Z,1053
2023-10-16T04:41:28.336Z,1058
2023-10-16T04:42:42.243Z,1065
2023-10-16T04:43:45.118Z,1071
2023-10-16T04:44:58.668Z,1077
2023-10-16T04:46:11.438Z,1081
2023-10-16T04:47:15.142Z,1084
2023-10-16T04:48:27.786Z,1086
2023-10-16T04:49:41.159Z,1088
2023-10-16T04:51:16.585Z,1092
2023-10-16T04:51:56.653Z,1093
2023-10-16T04:53:10.428Z,1092
2023-10-16T04:54:23.650Z,1097
2023-10-16T04:55:26.434Z,1099
2023-10-16T04:56:40.165Z,1102
2023-10-16T04:57:52.814Z,1107
2023-10-16T04:58:56.162Z,1118
2023-10-16T05:00:08.501Z,1159
2023-10-16T05:01:21.686Z,1188
2023-10-16T05:02:34.037Z,1199
2023-10-16T05:03:37.323Z,1211
2023-10-16T05:04:49.880Z,1212
2023-10-16T05:06:03.135Z,1203
2023-10-16T05:07:05.694Z,1194
2023-10-16T05:08:19.190Z,1187
2023-10-16T05:09:32.549Z,1160
2023-10-16T05:10:36.161Z,1145
2023-10-16T05:11:48.590Z,1131
2023-10-16T05:13:01.641Z,1128
2023-10-16T05:14:14.040Z,1126
2023-10-16T05:15:17.133Z,1121
2023-10-16T05:16:29.560Z,1113
2023-10-16T05:17:42.676Z,1100
2023-10-16T05:18:45.233Z,1064
2023-10-16T05:19:58.681Z,1036
2023-10-16T05:21:11.077Z,1045
2023-10-16T05:22:24.154Z,1065
2023-10-16T05:23:26.622Z,1075
2023-10-16T05:24:39.664Z,1072
2023-10-16T05:25:54.859Z,1074
2023-10-16T05:26:58.682Z,1064
2023-10-16T05:28:10.964Z,1064
2023-10-16T05:29:30.797Z,1053
2023-10-16T05:30:28.624Z,1039
2023-10-16T05:31:41.712Z,1031
2023-10-16T05:32:44.276Z,1024
2023-10-16T05:33:57.673Z,1009
2023-10-16T05:35:10.297Z,996
2023-10-16T05:36:23.200Z,966
2023-10-16T05:37:27.911Z,897
2023-10-16T05:38:41.208Z,857
2023-10-16T05:39:43.638Z,826
2023-10-16T05:40:56.644Z,816
2023-10-16T05:42:09.097Z,809
2023-10-16T05:43:22.148Z,810
2023-10-16T05:44:24.946Z,813
2023-10-16T05:45:38.209Z,813
2023-10-16T05:46:50.655Z,814
2023-10-16T05:47:54.211Z,816
2023-10-16T05:49:06.591Z,825
2023-10-16T05:50:19.688Z,831
2023-10-16T05:51:22.201Z,829
2023-10-16T05:52:35.200Z,831
2023-10-16T05:53:47.562Z,833
2023-10-16T05:55:00.706Z,835
2023-10-16T05:56:03.162Z,836
2023-10-16T05:57:16.147Z,834
2023-10-16T05:58:28.424Z,837
2023-10-16T05:59:41.644Z,836
2023-10-16T06:00:44.098Z,837
2023-10-16T06:01:57.239Z,840
2023-10-16T06:03:09.804Z,844
2023-10-16T06:04:13.379Z,846
2023-10-16T06:05:25.938Z,853
2023-10-16T06:06:40.650Z,863
2023-10-16T06:07:43.153Z,874
2023-10-16T06:08:56.173Z,894
2023-10-16T06:10:08.473Z,925
2023-10-16T06:11:11.692Z,983
2023-10-16T06:12:24.218Z,1027
2023-10-16T06:13:38.620Z,1037
2023-10-16T06:14:40.963Z,1042
2023-10-16T06:15:55.689Z,1044
2023-10-16T06:17:08.112Z,1048
2023-10-16T06:18:11.158Z,1047
2023-10-16T06:19:23.388Z,1049
2023-10-16T06:20:36.648Z,1052
2023-10-16T06:21:39.028Z,1050
2023-10-16T06:22:52.174Z,1054
2023-10-16T06:24:04.471Z,1056
2023-10-16T06:25:17.725Z,1058
2023-10-16T06:26:20.070Z,1059
2023-10-16T06:27:33.240Z,1060
2023-10-16T06:28:45.592Z,1060
2023-10-16T06:29:48.678Z,1060
2023-10-16T06:31:00.955Z,1056
2023-10-16T06:32:14.197Z,1054
2023-10-16T06:33:26.521Z,1053
2023-10-16T06:34:30.808Z,1052
2023-10-16T06:35:43.154Z,1051
2023-10-16T06:36:56.205Z,1050
2023-10-16T06:37:58.761Z,1049
2023-10-16T06:39:11.694Z,1051
2023-10-16T06:40:23.909Z,1052
2023-10-16T06:41:27.166Z,1051
2023-10-16T06:42:39.477Z,1048
2023-10-16T06:44:12.171Z,1046
2023-10-16T06:45:24.414Z,1041
2023-10-16T06:46:07.166Z,1039
2023-10-16T06:47:20.180Z,1037
2023-10-16T06:48:32.369Z,1035
2023-10-16T06:49:45.675Z,1030
2023-10-16T06:50:48.067Z,1026
2023-10-16T06:52:01.213Z,1026
2023-10-16T06:53:13.555Z,1025
2023-10-16T06:54:16.691Z,1025
2023-10-16T06:55:28.953Z,1021
2023-10-16T06:56:41.698Z,1020
2023-10-16T06:57:53.935Z,1022
2023-10-16T06:58:57.190Z,1021
2023-10-16T07:00:09.235Z,1019
2023-10-16T07:01:22.269Z,1016
2023-10-16T07:02:24.661Z,1019
2023-10-16T07:03:37.757Z,1018
2023-10-16T07:04:50.167Z,1020
2023-10-16T07:06:03.284Z,1015
2023-10-16T07:07:05.739Z,1014
2023-10-16T07:08:18.965Z,1012
2023-10-16T07:09:31.541Z,1013
2023-10-16T07:10:34.689Z,1012
2023-10-16T07:11:47.191Z,1009
2023-10-16T07:13:00.886Z,1007
2023-10-16T07:14:03.359Z,1005
2023-10-16T07:15:16.227Z,1006
2023-10-16T07:16:28.510Z,1004
2023-10-16T07:17:41.739Z,1004
2023-10-16T07:18:44.244Z,1002
2023-10-16T07:19:57.222Z,1000
2023-10-16T07:21:09.423Z,1000
2023-10-16T07:22:12.705Z,1000
2023-10-16T07:23:24.894Z,998
2023-10-16T07:24:37.719Z,999
2023-10-16T07:25:50.097Z,997
2023-10-16T07:26:53.201Z,998
2023-10-16T07:28:05.725Z,995
2023-10-16T07:29:18.721Z,993
2023-10-16T07:30:21.074Z,991
2023-10-16T07:31:34.235Z,994
2023-10-16T07:32:46.612Z,992
2023-10-16T07:33:59.728Z,990
2023-10-16T07:35:02.168Z,988
2023-10-16T07:36:15.198Z,987
2023-10-16T07:37:27.354Z,984
2023-10-16T07:38:30.737Z,981
2023-10-16T07:39:42.954Z,980
2023-10-16T07:40:56.224Z,978
2023-10-16T07:42:08.368Z,978
2023-10-16T07:43:11.196Z,978
2023-10-16T07:44:23.346Z,978
2023-10-16T07:45:36.786Z,975
2023-10-16T07:46:39.068Z,974
2023-10-16T07:47:52.277Z,972
2023-10-16T07:49:04.578Z,970
2023-10-16T07:50:17.708Z,969
2023-10-16T07:51:20.257Z,970
2023-10-16T07:52:33.246Z,966
2023-10-16T07:53:45.458Z,966
2023-10-16T07:54:48.800Z,965
2023-10-16T07:56:01.121Z,968
2023-10-16T07:57:14.222Z,970
2023-10-16T07:58:26.514Z,966
2023-10-16T07:59:29.730Z,965
2023-10-16T08:02:09.335Z,961
2023-10-16T08:03:02.326Z,961
2023-10-16T08:04:15.708Z,956
2023-10-16T08:05:18.151Z,959
2023-10-16T08:06:31.140Z,961
2023-10-16T08:07:43.507Z,955
2023-10-16T08:08:56.635Z,957
2023-10-16T08:09:59.345Z,958
2023-10-16T08:11:12.665Z,957
2023-10-16T08:12:24.906Z,959
2023-10-16T08:13:28.173Z,961
2023-10-16T08:14:40.334Z,962
2023-10-16T08:15:53.395Z,963
2023-10-16T08:16:55.978Z,963
2023-10-16T08:18:09.293Z,965
2023-10-16T08:19:21.760Z,964
2023-10-16T08:20:34.679Z,960
2023-10-16T08:21:37.073Z,958
2023-10-16T08:22:50.685Z,957
2023-10-16T08:24:03.034Z,954
2023-10-16T08:25:06.253Z,952
2023-10-16T08:26:18.594Z,950
2023-10-16T08:27:31.676Z,949
2023-10-16T08:28:33.953Z,949
2023-10-16T08:29:47.167Z,946
2023-10-16T08:30:59.462Z,943
2023-10-16T08:32:12.641Z,941
2023-10-16T08:33:15.065Z,938
2023-10-16T08:34:28.460Z,937
2023-10-16T08:35:41.043Z,933
2023-10-16T08:36:44.162Z,931
2023-10-16T08:37:56.471Z,928
2023-10-16T08:39:09.648Z,927
2023-10-16T08:40:12.076Z,926
2023-10-16T08:41:25.149Z,926
2023-10-16T08:42:37.380Z,924
2023-10-16T08:43:50.649Z,925
2023-10-16T08:44:52.984Z,923
2023-10-16T08:46:06.237Z,923
2023-10-16T08:47:33.151Z,923
2023-10-16T08:48:25.717Z,920
2023-10-16T08:49:48.045Z,919
2023-10-16T08:50:48.466Z,921
2023-10-16T08:51:50.828Z,919
2023-10-16T08:53:04.085Z,918
2023-10-16T08:54:16.272Z,917
2023-10-16T08:55:29.094Z,915
2023-10-16T08:56:31.353Z,915
2023-10-16T08:57:44.122Z,915
2023-10-16T08:58:56.370Z,916
2023-10-16T09:00:09.104Z,918
2023-10-16T09:01:11.448Z,917
2023-10-16T09:02:24.611Z,915
2023-10-16T09:03:37.017Z,913
2023-10-16T09:04:40.194Z,913
2023-10-16T09:05:52.561Z,911
2023-10-16T09:07:05.650Z,908
2023-10-16T09:08:18.007Z,905
2023-10-16T09:09:21.078Z,903
2023-10-16T09:10:33.429Z,901
2023-10-16T09:11:46.636Z,902
2023-10-16T09:12:49.259Z,898
2023-10-16T09:14:02.613Z,897
2023-10-16T09:15:14.807Z,897
2023-10-16T09:16:27.641Z,897
2023-10-16T09:17:30.078Z,899
2023-10-16T09:18:43.112Z,895
2023-10-16T09:20:05.148Z,895
2023-10-16T09:20:59.124Z,895
2023-10-16T09:22:11.297Z,896
2023-10-16T09:23:26.828Z,892
2023-10-16T09:24:30.151Z,890
2023-10-16T09:25:43.130Z,888
2023-10-16T09:26:55.419Z,887
2023-10-16T09:27:58.642Z,888
2023-10-16T09:29:10.802Z,889
2023-10-16T09:30:23.693Z,888
2023-10-16T09:31:26.249Z,888
2023-10-16T09:32:39.148Z,883
2023-10-16T09:33:51.488Z,884
2023-10-16T09:35:04.617Z,883
2023-10-16T09:36:06.860Z,878
2023-10-16T09:37:20.111Z,876
2023-10-16T09:38:32.162Z,877
2023-10-16T09:39:35.101Z,877
2023-10-16T09:40:47.202Z,874
2023-10-16T09:42:00.130Z,874
2023-10-16T09:43:12.199Z,874
2023-10-16T09:44:15.088Z,875
2023-10-16T09:45:27.195Z,874
2023-10-16T09:46:40.185Z,873
2023-10-16T09:47:42.415Z,870
2023-10-16T09:48:55.156Z,872
2023-10-16T09:50:07.383Z,871
2023-10-16T09:51:20.087Z,871
2023-10-16T09:52:22.394Z,869
2023-10-16T09:53:35.598Z,868
2023-10-16T09:54:47.653Z,866
2023-10-16T09:56:00.576Z,867
2023-10-16T09:57:02.819Z,866
2023-10-16T09:58:15.595Z,867
2023-10-16T09:59:28.002Z,865
2023-10-16T10:00:31.136Z,862
2023-10-16T10:01:43.393Z,863
2023-10-16T10:02:56.663Z,861
2023-10-16T10:03:59.162Z,859
2023-10-16T10:05:12.092Z,855
2023-10-16T10:06:24.086Z,850
2023-10-16T10:07:37.114Z,850
2023-10-16T10:08:39.269Z,848
2023-10-16T10:09:52.122Z,843
2023-10-16T10:11:11.263Z,838
2023-10-16T10:12:11.620Z,836
2023-10-16T10:13:23.673Z,834
2023-10-16T10:14:36.605Z,833
2023-10-16T10:15:38.837Z,830
2023-10-16T10:16:51.667Z,827
2023-10-16T10:18:03.865Z,824
2023-10-16T10:19:06.716Z,821
2023-10-16T10:20:18.901Z,820
2023-10-16T10:21:31.670Z,817
2023-10-16T10:22:43.795Z,818
2023-10-16T10:23:46.609Z,816
2023-10-16T10:24:58.675Z,813
2023-10-16T10:26:11.644Z,807
2023-10-16T10:27:13.859Z,801
2023-10-16T10:28:26.623Z,788
2023-10-16T10:29:38.673Z,776
2023-10-16T10:30:51.682Z,774
2023-10-16T10:31:53.924Z,771
2023-10-16T10:33:06.623Z,769
2023-10-16T10:34:18.681Z,767
2023-10-16T10:35:31.649Z,763
2023-10-16T10:36:33.987Z,761
2023-10-16T10:37:47.152Z,757
2023-10-16T10:38:59.210Z,755
2023-10-16T10:40:02.266Z,752
2023-10-16T10:41:14.441Z,748
2023-10-16T10:42:27.121Z,745
2023-10-16T10:43:29.238Z,743
2023-10-16T10:44:42.134Z,741
2023-10-16T10:45:54.151Z,738
2023-10-16T10:47:07.112Z,737
2023-10-16T10:48:09.322Z,737
2023-10-16T10:49:22.155Z,734
2023-10-16T10:50:34.346Z,735
2023-10-16T10:51:47.167Z,731
2023-10-16T10:52:49.368Z,730
2023-10-16T10:54:02.108Z,729
2023-10-16T10:55:14.143Z,729
2023-10-16T10:56:17.104Z,727
2023-10-16T10:57:29.149Z,728
2023-10-16T10:58:42.138Z,726
2023-10-16T10:59:54.357Z,724
2023-10-16T11:00:57.181Z,724
2023-10-16T11:03:22.167Z,729
2023-10-16T11:04:24.527Z,728
2023-10-16T11:05:37.630Z,731
2023-10-16T11:06:49.743Z,730
2023-10-16T11:08:02.632Z,728
2023-10-16T11:09:04.815Z,728
2023-10-16T11:10:17.693Z,732
2023-10-16T11:11:29.924Z,734
2023-10-16T11:12:33.178Z,736
2023-10-16T11:13:45.380Z,736
2023-10-16T11:14:58.341Z,740
2023-10-16T11:16:10.448Z,746
2023-10-16T11:17:13.674Z,749
2023-10-16T11:18:25.744Z,751
2023-10-16T11:19:38.680Z,754
2023-10-16T11:20:40.890Z,756
2023-10-16T11:21:53.737Z,757
2023-10-16T11:23:08.218Z,759
2023-10-16T11:24:11.657Z,761
2023-10-16T11:25:23.602Z,763
2023-10-16T11:26:36.136Z,766
2023-10-16T11:27:38.355Z,770
2023-10-16T11:28:51.132Z,771
2023-10-16T11:30:03.172Z,771
2023-10-16T11:31:16.928Z,775
2023-10-16T11:32:19.297Z,778
2023-10-16T11:33:32.138Z,781
2023-10-16T11:34:44.155Z,782
2023-10-16T11:35:47.215Z,786
2023-10-16T11:36:59.156Z,792
2023-10-16T11:38:12.158Z,794
2023-10-16T11:39:24.226Z,797
2023-10-16T11:40:27.152Z,799
2023-10-16T11:41:39.108Z,802
2023-10-16T11:42:51.699Z,803
2023-10-16T11:43:53.872Z,806
2023-10-16T11:45:06.651Z,806
2023-10-16T11:46:18.785Z,807
2023-10-16T11:47:31.715Z,808
2023-10-16T11:48:33.957Z,811
2023-10-16T11:49:47.974Z,813
2023-10-16T11:50:59.978Z,816
2023-10-16T11:52:03.166Z,820
2023-10-16T11:53:15.124Z,822
2023-10-16T11:54:28.503Z,824
2023-10-16T11:55:30.831Z,827
2023-10-16T11:56:43.677Z,828
2023-10-16T11:57:55.713Z,832
2023-10-16T11:59:08.675Z,831
2023-10-16T12:00:10.985Z,834
2023-10-16T12:01:33.361Z,837
2023-10-16T12:02:35.393Z,839
2023-10-16T12:03:38.229Z,842
2023-10-16T12:04:50.446Z,843
2023-10-16T12:06:03.689Z,844
2023-10-16T12:07:16.201Z,844
2023-10-16T12:08:19.154Z,845
2023-10-16T12:09:31.123Z,844
2023-10-16T12:10:44.154Z,844
2023-10-16T12:11:46.305Z,844
2023-10-16T12:12:59.177Z,844
2023-10-16T12:14:11.278Z,844
2023-10-16T12:15:14.259Z,846
2023-10-16T12:16:35.540Z,846
2023-10-16T12:17:41.993Z,847
2023-10-16T12:18:49.397Z,848
2023-10-16T12:19:52.642Z,846
2023-10-16T12:21:04.711Z,846
2023-10-16T12:22:17.721Z,848
2023-10-16T12:23:29.689Z,848
2023-10-16T12:24:32.764Z,848
2023-10-16T12:25:49.997Z,848
2023-10-16T12:26:52.694Z,848
2023-10-16T12:28:04.728Z,847
2023-10-16T12:29:17.688Z,849
2023-10-16T12:30:19.874Z,849
2023-10-16T12:31:32.641Z,850
2023-10-16T12:32:44.742Z,848
2023-10-16T12:33:47.812Z,846
2023-10-16T12:34:59.930Z,845
2023-10-16T12:36:13.194Z,846
2023-10-16T12:37:15.350Z,846
2023-10-16T12:38:28.189Z,847
2023-10-16T12:39:40.225Z,849
2023-10-16T12:40:53.197Z,851
2023-10-16T12:41:55.530Z,852
2023-10-16T12:43:08.775Z,856
2023-10-16T12:44:20.979Z,857
2023-10-16T12:45:23.703Z,857
2023-10-16T12:46:35.716Z,859
2023-10-16T12:47:51.061Z,857
2023-10-16T12:48:53.888Z,856
2023-10-16T12:50:06.664Z,856
2023-10-16T12:51:18.676Z,858
2023-10-16T12:52:21.706Z,857
2023-10-16T12:53:43.631Z,859
2023-10-16T12:54:46.762Z,861
2023-10-16T12:55:49.103Z,861
2023-10-16T12:57:01.771Z,866
2023-10-16T12:58:13.834Z,868
2023-10-16T12:59:28.196Z,871
2023-10-16T13:00:30.343Z,871
2023-10-16T13:01:43.183Z,871
2023-10-16T13:02:55.274Z,872
2023-10-16T13:03:58.732Z,872
2023-10-16T13:05:10.965Z,872
2023-10-16T13:06:23.669Z,874
2023-10-16T13:07:39.251Z,874
2023-10-16T13:08:35.199Z,878
2023-10-16T13:09:47.326Z,877
2023-10-16T13:11:00.165Z,880
2023-10-16T13:12:12.210Z,884
2023-10-16T13:13:15.249Z,888
2023-10-16T13:14:27.547Z,890
2023-10-16T13:15:40.790Z,889
2023-10-16T13:16:42.973Z,894
2023-10-16T13:17:55.717Z,895
2023-10-16T13:19:08.011Z,899
2023-10-16T13:20:21.696Z,899
2023-10-16T13:21:23.958Z,901
2023-10-16T13:22:36.704Z,899
2023-10-16T13:23:48.731Z,899
2023-10-16T13:24:51.770Z,899
2023-10-16T13:26:03.949Z,898
2023-10-16T13:27:16.710Z,896
2023-10-16T13:28:18.913Z,898
2023-10-16T13:29:31.680Z,896
2023-10-16T13:30:43.687Z,895
2023-10-16T13:31:56.702Z,894
2023-10-16T13:32:58.963Z,895
2023-10-16T13:34:11.727Z,897
2023-10-16T13:35:23.837Z,898
2023-10-16T13:36:36.762Z,899
2023-10-16T13:37:43.638Z,903
2023-10-16T13:38:46.722Z,902
2023-10-16T13:39:58.749Z,901
2023-10-16T13:41:11.704Z,900
2023-10-16T13:42:23.655Z,903
2023-10-16T13:43:26.668Z,905
2023-10-16T13:44:38.684Z,904
2023-10-16T13:45:51.700Z,903
2023-10-16T13:47:03.822Z,901
2023-10-16T13:48:06.740Z,901
2023-10-16T13:49:18.966Z,903
2023-10-16T13:50:31.677Z,903
2023-10-16T13:51:33.877Z,903
2023-10-16T13:52:46.724Z,905
2023-10-16T13:53:58.717Z,907
2023-10-16T13:55:11.899Z,906
2023-10-16T13:56:14.070Z,909
2023-10-16T13:57:26.691Z,908
2023-10-16T13:58:38.702Z,909
2023-10-16T13:59:51.711Z,907
2023-10-16T14:00:53.833Z,907
2023-10-16T14:02:07.218Z,909
2023-10-16T14:03:19.282Z,908
2023-10-16T14:04:22.207Z,907
2023-10-16T14:05:34.240Z,906
2023-10-16T14:06:47.224Z,908
2023-10-16T14:07:59.250Z,908
2023-10-16T14:09:02.201Z,908
2023-10-16T14:10:14.244Z,910
2023-10-16T14:11:27.191Z,911
2023-10-16T14:12:29.376Z,913
2023-10-16T14:13:42.211Z,913
2023-10-16T14:14:55.642Z,914
2023-10-16T14:16:08.764Z,914
2023-10-16T14:17:11.235Z,913
2023-10-16T14:18:24.200Z,913
2023-10-16T14:19:36.246Z,913
2023-10-16T14:20:39.215Z,912
2023-10-16T14:21:52.900Z,913
2023-10-16T14:23:07.233Z,919
2023-10-16T14:24:09.414Z,920
2023-10-16T14:25:22.229Z,918
2023-10-16T14:26:34.254Z,915
2023-10-16T14:27:38.712Z,916
2023-10-16T14:28:51.139Z,917
2023-10-16T14:30:05.633Z,920
2023-10-16T14:31:07.928Z,922
2023-10-16T14:32:20.780Z,923
2023-10-16T14:33:32.999Z,921
2023-10-16T14:34:37.592Z,921
2023-10-16T14:35:49.712Z,922
2023-10-16T14:37:02.747Z,922
2023-10-16T14:38:04.979Z,924
2023-10-16T14:39:17.715Z,923
2023-10-16T14:40:29.715Z,923
2023-10-16T14:41:42.732Z,925
2023-10-16T14:42:44.961Z,924
2023-10-16T14:43:58.508Z,923
2023-10-16T14:45:10.711Z,925
2023-10-16T14:46:13.854Z,925
2023-10-16T14:47:25.996Z,925
2023-10-16T14:48:39.012Z,923
2023-10-16T14:49:41.413Z,924
2023-10-16T14:50:54.232Z,922
2023-10-16T14:52:06.289Z,919
2023-10-16T14:53:19.701Z,912
2023-10-16T14:54:21.861Z,905
2023-10-16T14:55:34.794Z,890
2023-10-16T14:56:47.196Z,851
2023-10-16T14:58:07.894Z,841
2023-10-16T15:00:13.343Z,821
2023-10-16T15:01:25.490Z,821
2023-10-16T15:02:38.918Z,818
2023-10-16T15:03:41.285Z,816
2023-10-16T15:04:55.955Z,811
2023-10-16T15:05:58.300Z,816
2023-10-16T15:07:11.322Z,814
2023-10-16T15:08:23.417Z,813
2023-10-16T15:09:36.231Z,814
2023-10-16T15:10:48.018Z,814
2023-10-16T15:11:54.238Z,815
2023-10-16T15:12:56.417Z,817
2023-10-16T15:14:09.208Z,817
2023-10-16T15:15:21.252Z,816
2023-10-16T15:16:34.725Z,816
2023-10-16T15:17:37.229Z,817
2023-10-16T15:18:50.341Z,817
2023-10-16T15:20:02.465Z,813
2023-10-16T15:21:05.768Z,814
2023-10-16T15:22:18.160Z,814
2023-10-16T15:23:51.227Z,813
2023-10-16T15:24:43.675Z,814
2023-10-16T15:25:46.004Z,814
2023-10-16T15:26:58.795Z,814
2023-10-16T15:28:10.959Z,815
2023-10-16T15:29:14.241Z,816
2023-10-16T15:30:26.515Z,815
2023-10-16T15:31:40.869Z,814
2023-10-16T15:32:43.239Z,814
2023-10-16T15:33:56.296Z,813
2023-10-16T15:35:08.534Z,811
2023-10-16T15:36:21.282Z,810
2023-10-16T15:37:23.618Z,810
2023-10-16T15:38:36.753Z,811
2023-10-16T15:39:48.919Z,811
2023-10-16T15:40:52.265Z,808
2023-10-16T15:42:04.606Z,804
2023-10-16T15:43:17.747Z,802
2023-10-16T15:44:29.943Z,800
2023-10-16T15:45:32.765Z,800
2023-10-16T15:46:45.004Z,797
2023-10-16T15:47:57.774Z,794
2023-10-16T15:49:00.193Z,794
2023-10-16T15:50:13.278Z,794
2023-10-16T15:51:25.289Z,792
2023-10-16T15:52:38.219Z,793
2023-10-16T15:53:40.392Z,789
2023-10-16T15:54:53.292Z,785
2023-10-16T15:56:05.438Z,782
2023-10-16T15:57:18.259Z,780
2023-10-16T15:58:20.494Z,777
2023-10-16T15:59:33.255Z,776
2023-10-16T16:00:45.379Z,771